createdAt,value
2019-05-21T00:02:18.671Z,68.81
2019-05-21T00:04:45.837Z,68.74
2019-05-21T00:07:12.767Z,68.94
2019-05-21T00:09:45.851Z,68.78
2019-05-21T00:12:13.083Z,68.83
2019-05-21T00:14:46.573Z,68.89
2019-05-21T00:17:13.747Z,68.66
2019-05-21T00:19:53.583Z,68.61
2019-05-21T00:22:20.589Z,68.56
2019-05-21T00:24:48.837Z,68.78
2019-05-21T00:27:15.670Z,69.46
2019-05-21T00:30:19.226Z,69.87
2019-05-21T00:33:23.065Z,70.25
2019-05-21T00:36:26.761Z,70.02
2019-05-21T00:39:30.542Z,70.12
2019-05-21T00:42:02.107Z,69.90
2019-05-21T00:44:32.939Z,69.99
2019-05-21T00:46:59.756Z,70.23
2019-05-21T00:49:26.917Z,70.31
2019-05-21T00:52:06.465Z,70.49
2019-05-21T00:54:22.390Z,70.23
2019-05-21T00:56:49.002Z,70.21
2019-05-21T00:59:15.983Z,70.34
2019-05-21T01:01:42.700Z,70.77
2019-05-21T01:04:09.542Z,70.73
2019-05-21T01:06:36.160Z,70.63
2019-05-21T01:09:04.547Z,70.96
2019-05-21T01:11:31.377Z,71.00
2019-05-21T01:13:57.949Z,71.12
2019-05-21T01:16:24.971Z,71.29
2019-05-21T01:18:51.566Z,71.74
2019-05-21T01:21:18.169Z,71.81
2019-05-21T01:23:44.984Z,71.86
2019-05-21T01:26:11.680Z,72.09
2019-05-21T01:28:38.335Z,71.79
2019-05-21T01:31:06.074Z,72.08
2019-05-21T01:33:32.778Z,72.51
2019-05-21T01:35:59.580Z,73.75
2019-05-21T01:38:26.559Z,74.29
2019-05-21T01:40:53.636Z,75.75
2019-05-21T01:43:20.329Z,77.49
2019-05-21T01:45:47.156Z,78.80
2019-05-21T01:48:13.906Z,79.97
2019-05-21T01:50:40.618Z,81.47
2019-05-21T01:53:07.595Z,81.73
2019-05-21T01:55:34.534Z,81.68
2019-05-21T01:58:01.167Z,82.04
2019-05-21T02:00:27.889Z,82.23
2019-05-21T02:02:54.903Z,82.06
2019-05-21T02:05:32.484Z,82.05
2019-05-21T02:07:52.751Z,81.50
2019-05-21T02:10:19.557Z,81.82
2019-05-21T02:12:46.896Z,82.08
2019-05-21T02:15:13.855Z,82.49
2019-05-21T02:17:40.418Z,82.54
2019-05-21T02:20:07.423Z,82.92
2019-05-21T02:22:34.119Z,83.65
2019-05-21T02:25:01.987Z,83.98
2019-05-21T02:27:28.709Z,83.94
2019-05-21T02:29:55.308Z,83.51
2019-05-21T02:32:21.982Z,82.62
2019-05-21T02:34:48.951Z,84.28
2019-05-21T02:37:17.233Z,85.21
2019-05-21T02:39:43.799Z,85.58
2019-05-21T02:42:10.552Z,86.02
2019-05-21T02:44:37.171Z,86.48
2019-05-21T02:47:04.790Z,86.89
2019-05-21T02:49:31.700Z,87.10
2019-05-21T02:51:58.356Z,87.33
2019-05-21T02:54:39.534Z,87.07
2019-05-21T02:56:53.612Z,87.11
2019-05-21T02:59:20.305Z,86.92
2019-05-21T03:02:15.481Z,87.12
2019-05-21T03:04:42.199Z,87.41
2019-05-21T03:07:17.773Z,87.38
2019-05-21T03:09:45.426Z,87.45
2019-05-21T03:12:12.334Z,87.17
2019-05-21T03:14:39.016Z,87.07
2019-05-21T03:17:05.626Z,87.03
2019-05-21T03:19:32.295Z,86.96
2019-05-21T03:21:59.263Z,86.81
2019-05-21T03:24:27.528Z,87.16
2019-05-21T03:26:54.183Z,86.67
2019-05-21T03:29:20.809Z,86.52
2019-05-21T03:31:47.414Z,86.69
2019-05-21T03:34:14.201Z,86.77
2019-05-21T03:36:40.812Z,86.76
2019-05-21T03:39:07.407Z,86.82
2019-05-21T03:41:34.126Z,86.65
2019-05-21T03:44:01.704Z,86.56
2019-05-21T03:46:28.733Z,86.76
2019-05-21T03:48:55.921Z,86.49
2019-05-21T03:51:22.558Z,86.53
2019-05-21T03:53:49.234Z,86.77
2019-05-21T03:56:16.014Z,86.81
2019-05-21T03:58:42.799Z,86.66
2019-05-21T04:01:09.947Z,86.23
2019-05-21T04:03:36.716Z,86.09
2019-05-21T04:06:03.591Z,86.40
2019-05-21T04:08:30.390Z,86.52
2019-05-21T04:10:57.091Z,86.38
2019-05-21T04:13:23.806Z,86.45
2019-05-21T04:16:19.298Z,86.52
2019-05-21T04:18:58.900Z,86.33
2019-05-21T04:21:27.926Z,86.25
2019-05-21T04:23:54.550Z,86.28
2019-05-21T04:26:21.250Z,86.06
2019-05-21T04:28:48.025Z,85.94
2019-05-21T04:31:14.744Z,86.32
2019-05-21T04:33:41.606Z,86.22
2019-05-21T04:36:08.371Z,86.00
2019-05-21T04:38:35.331Z,85.68
2019-05-21T04:41:02.002Z,85.65
2019-05-21T04:43:28.704Z,85.30
2019-05-21T04:45:56.356Z,85.06
2019-05-21T04:48:23.070Z,84.94
2019-05-21T04:50:49.754Z,84.93
2019-05-21T04:53:16.530Z,84.77
2019-05-21T04:55:43.860Z,84.90
2019-05-21T04:58:10.872Z,84.61
2019-05-21T05:00:37.526Z,84.92
2019-05-21T05:03:04.301Z,84.54
2019-05-21T05:05:30.904Z,84.23
2019-05-21T05:07:57.493Z,84.61
2019-05-21T05:10:24.225Z,84.79
2019-05-21T05:12:50.865Z,84.63
2019-05-21T05:15:17.531Z,84.40
2019-05-21T05:17:44.214Z,84.48
2019-05-21T05:20:11.166Z,84.55
2019-05-21T05:22:37.838Z,83.92
2019-05-21T05:25:04.587Z,83.70
2019-05-21T05:27:31.616Z,84.08
2019-05-21T05:29:58.417Z,83.60
2019-05-21T05:32:25.583Z,83.50
2019-05-21T05:34:53.100Z,83.20
2019-05-21T05:37:20.344Z,82.52
2019-05-21T05:39:47.268Z,82.16
2019-05-21T05:42:15.718Z,81.94
2019-05-21T05:44:50.804Z,81.83
2019-05-21T05:47:17.730Z,82.45
2019-05-21T05:49:48.424Z,82.57
2019-05-21T05:52:15.407Z,82.88
2019-05-21T05:54:42.331Z,82.89
2019-05-21T05:57:09.515Z,82.53
2019-05-21T05:59:36.339Z,82.84
2019-05-21T06:02:04.342Z,83.02
2019-05-21T06:04:31.152Z,83.34
2019-05-21T06:06:58.091Z,83.10
2019-05-21T06:09:24.843Z,82.78
2019-05-21T06:11:51.507Z,82.38
2019-05-21T06:14:18.278Z,82.91
2019-05-21T06:16:45.366Z,82.83
2019-05-21T06:19:12.293Z,82.34
2019-05-21T06:21:40.619Z,82.22
2019-05-21T06:24:07.549Z,82.49
2019-05-21T06:26:34.373Z,83.26
2019-05-21T06:29:02.856Z,82.93
2019-05-21T06:31:29.602Z,82.74
2019-05-21T06:33:56.335Z,82.64
2019-05-21T06:36:23.305Z,82.14
2019-05-21T06:38:50.084Z,82.49
2019-05-21T06:41:16.820Z,82.27
2019-05-21T06:43:43.774Z,82.95
2019-05-21T06:46:10.506Z,83.37
2019-05-21T06:48:37.186Z,83.66
2019-05-21T06:51:03.988Z,83.25
2019-05-21T06:53:31.111Z,82.86
2019-05-21T06:55:57.807Z,83.48
2019-05-21T06:58:24.550Z,83.74
2019-05-21T07:00:51.616Z,83.70
2019-05-21T07:03:18.414Z,83.66
2019-05-21T07:05:58.479Z,83.23
2019-05-21T07:08:13.586Z,83.69
2019-05-21T07:10:40.875Z,83.42
2019-05-21T07:13:07.533Z,83.33
2019-05-21T07:15:34.226Z,83.24
2019-05-21T07:18:00.857Z,82.97
2019-05-21T07:20:28.687Z,82.97
2019-05-21T07:22:55.538Z,82.93
2019-05-21T07:25:22.775Z,82.54
2019-05-21T07:27:49.544Z,82.17
2019-05-21T07:30:17.738Z,81.01
2019-05-21T07:32:44.637Z,81.43
2019-05-21T07:35:12.113Z,80.05
2019-05-21T07:37:39.976Z,78.71
2019-05-21T07:40:07.011Z,78.25
2019-05-21T07:42:33.678Z,78.71
2019-05-21T07:45:00.667Z,79.74
2019-05-21T07:47:27.521Z,80.11
2019-05-21T07:49:54.242Z,80.25
2019-05-21T07:52:20.977Z,80.48
2019-05-21T07:54:47.813Z,80.68
2019-05-21T07:57:14.681Z,80.65
2019-05-21T07:59:41.781Z,80.91
2019-05-21T08:02:08.455Z,80.12
2019-05-21T08:04:35.219Z,79.33
2019-05-21T08:07:02.103Z,78.85
2019-05-21T08:09:29.770Z,79.59
2019-05-21T08:11:56.452Z,79.53
2019-05-21T08:14:23.034Z,79.89
2019-05-21T08:16:50.060Z,79.93
2019-05-21T08:19:17.076Z,79.81
2019-05-21T08:21:43.865Z,80.37
2019-05-21T08:24:13.305Z,79.72
2019-05-21T08:26:39.916Z,79.39
2019-05-21T08:29:06.560Z,79.44
2019-05-21T08:31:33.393Z,80.44
2019-05-21T08:34:00.049Z,80.30
2019-05-21T08:36:26.813Z,80.22
2019-05-21T08:38:53.466Z,80.26
2019-05-21T08:41:20.164Z,80.56
2019-05-21T08:43:47.145Z,80.14
2019-05-21T08:46:13.912Z,79.44
2019-05-21T08:48:40.532Z,78.37
2019-05-21T08:51:07.873Z,77.04
2019-05-21T08:53:34.632Z,77.34
2019-05-21T08:56:01.316Z,77.35
2019-05-21T08:58:28.055Z,76.87
2019-05-21T09:00:55.003Z,76.93
2019-05-21T09:03:21.751Z,76.64
2019-05-21T09:05:48.627Z,77.64
2019-05-21T09:08:15.314Z,78.30
2019-05-21T09:10:41.988Z,78.16
2019-05-21T09:13:08.924Z,77.68
2019-05-21T09:15:35.813Z,78.00
2019-05-21T09:18:02.685Z,77.13
2019-05-21T09:20:29.750Z,78.17
2019-05-21T09:22:56.959Z,77.66
2019-05-21T09:25:23.588Z,77.98
2019-05-21T09:27:50.358Z,77.66
2019-05-21T09:30:19.261Z,77.73
2019-05-21T09:32:45.873Z,77.38
2019-05-21T09:35:12.710Z,78.17
2019-05-21T09:37:39.506Z,78.28
2019-05-21T09:40:07.964Z,77.07
2019-05-21T09:42:34.561Z,77.65
2019-05-21T09:45:01.210Z,77.52
2019-05-21T09:47:27.951Z,76.59
2019-05-21T09:49:54.761Z,75.86
2019-05-21T09:52:21.584Z,75.04
2019-05-21T09:54:48.282Z,74.26
2019-05-21T09:57:18.900Z,72.93
2019-05-21T09:59:54.622Z,73.23
2019-05-21T10:02:24.426Z,73.06
2019-05-21T10:04:51.210Z,74.29
2019-05-21T10:07:18.109Z,74.51
2019-05-21T10:09:44.710Z,74.37
2019-05-21T10:12:11.585Z,74.81
2019-05-21T10:14:38.270Z,73.60
2019-05-21T10:17:04.934Z,74.19
2019-05-21T10:19:31.637Z,73.12
2019-05-21T10:21:58.282Z,72.76
2019-05-21T10:24:24.874Z,72.18
2019-05-21T10:26:51.571Z,73.06
2019-05-21T10:29:18.172Z,72.48
2019-05-21T10:31:45.033Z,73.13
2019-05-21T10:34:13.459Z,74.12
2019-05-21T10:36:40.276Z,74.56
2019-05-21T10:39:06.966Z,74.01
2019-05-21T10:41:33.576Z,74.39
2019-05-21T10:44:00.416Z,73.62
2019-05-21T10:46:28.060Z,73.95
2019-05-21T10:48:54.919Z,73.22
2019-05-21T10:51:21.962Z,72.99
2019-05-21T10:53:48.751Z,70.90
2019-05-21T10:56:15.654Z,70.54
2019-05-21T10:58:42.350Z,71.34
2019-05-21T11:01:25.017Z,72.08
2019-05-21T11:04:10.473Z,73.34
2019-05-21T11:06:37.168Z,72.89
2019-05-21T11:09:07.724Z,72.80
2019-05-21T11:11:35.250Z,73.95
2019-05-21T11:14:02.115Z,73.81
2019-05-21T11:16:28.735Z,73.82
2019-05-21T11:18:55.385Z,74.38
2019-05-21T11:21:22.203Z,74.04
2019-05-21T11:23:49.044Z,74.17
2019-05-21T11:26:15.769Z,74.53
2019-05-21T11:28:42.539Z,74.45
2019-05-21T11:31:09.271Z,74.18
2019-05-21T11:33:35.927Z,73.94
2019-05-21T11:36:02.636Z,73.71
2019-05-21T11:38:39.534Z,72.93
2019-05-21T11:40:58.244Z,72.91
2019-05-21T11:43:24.895Z,73.55
2019-05-21T11:45:51.812Z,73.24
2019-05-21T11:48:18.694Z,72.93
2019-05-21T11:50:45.450Z,72.83
2019-05-21T11:53:12.386Z,72.48
2019-05-21T11:55:39.145Z,72.59
2019-05-21T11:58:08.747Z,72.11
2019-05-21T12:00:35.772Z,72.84
2019-05-21T12:03:02.711Z,72.92
2019-05-21T12:05:29.485Z,72.11
2019-05-21T12:07:56.077Z,72.33
2019-05-21T12:10:22.720Z,71.89
2019-05-21T12:12:49.781Z,71.73
2019-05-21T12:15:17.156Z,72.36
2019-05-21T12:17:44.114Z,71.62
2019-05-21T12:20:11.049Z,71.19
2019-05-21T12:22:37.800Z,71.36
2019-05-21T12:25:05.439Z,70.40
2019-05-21T12:27:32.017Z,69.00
2019-05-21T12:29:59.262Z,69.59
2019-05-21T12:32:25.983Z,70.15
2019-05-21T12:34:52.617Z,69.83
2019-05-21T12:37:20.509Z,70.18
2019-05-21T12:39:47.211Z,69.50
2019-05-21T12:42:14.408Z,69.99
2019-05-21T12:44:41.319Z,70.04
2019-05-21T12:47:09.869Z,70.35
2019-05-21T12:49:36.579Z,69.19
2019-05-21T12:52:03.593Z,69.14
2019-05-21T12:54:30.598Z,68.82
2019-05-21T12:56:57.493Z,69.09
2019-05-21T12:59:24.282Z,70.21
2019-05-21T13:01:51.013Z,69.90
2019-05-21T13:04:17.646Z,69.70
2019-05-21T13:06:44.286Z,70.42
2019-05-21T13:09:11.020Z,69.86
2019-05-21T13:11:37.687Z,68.86
2019-05-21T13:14:04.386Z,70.04
2019-05-21T13:16:31.603Z,69.61
2019-05-21T13:18:58.329Z,69.98
2019-05-21T13:21:25.164Z,69.87
2019-05-21T13:23:51.759Z,71.12
2019-05-21T13:26:22.456Z,71.27
2019-05-21T13:28:49.165Z,71.10
2019-05-21T13:31:16.001Z,70.45
2019-05-21T13:33:42.737Z,71.12
2019-05-21T13:36:09.487Z,71.51
2019-05-21T13:38:36.330Z,71.55
2019-05-21T13:41:04.126Z,70.13
2019-05-21T13:43:31.146Z,70.23
2019-05-21T13:45:57.966Z,71.46
2019-05-21T13:48:28.156Z,70.98
2019-05-21T13:50:56.710Z,70.97
2019-05-21T13:53:24.419Z,71.18
2019-05-21T13:55:53.847Z,72.86
2019-05-21T13:58:20.450Z,72.30
2019-05-21T14:00:49.476Z,72.87
2019-05-21T14:03:17.268Z,73.95
2019-05-21T14:05:44.428Z,74.81
2019-05-21T14:08:14.327Z,75.20
2019-05-21T14:10:41.341Z,73.86
2019-05-21T14:13:08.381Z,74.95
2019-05-21T14:15:35.215Z,76.68
2019-05-21T14:18:02.032Z,75.44
2019-05-21T14:20:28.815Z,75.70
2019-05-21T14:22:55.473Z,76.29
2019-05-21T14:25:22.202Z,76.23
2019-05-21T14:27:49.021Z,77.07
2019-05-21T14:30:16.047Z,77.63
2019-05-21T14:32:42.729Z,77.92
2019-05-21T14:35:09.462Z,81.28
2019-05-21T14:37:36.148Z,83.25
2019-05-21T14:40:03.460Z,83.67
2019-05-21T14:42:30.169Z,84.32
2019-05-21T14:44:56.844Z,84.42
2019-05-21T14:47:24.928Z,84.26
2019-05-21T14:49:51.619Z,84.17
2019-05-21T14:52:18.874Z,84.73
2019-05-21T14:54:45.613Z,84.44
2019-05-21T14:57:12.287Z,82.35
2019-05-21T14:59:39.439Z,85.35
2019-05-21T15:02:06.278Z,85.12
2019-05-21T15:04:33.209Z,85.57
2019-05-21T15:07:01.031Z,86.35
2019-05-21T15:09:32.002Z,85.64
2019-05-21T15:11:58.786Z,86.41
2019-05-21T15:14:25.606Z,86.35
2019-05-21T15:16:52.220Z,85.92
2019-05-21T15:19:18.976Z,86.24
2019-05-21T15:21:49.377Z,86.10
2019-05-21T15:24:16.590Z,86.77
2019-05-21T15:26:43.556Z,85.94
2019-05-21T15:29:10.214Z,86.03
2019-05-21T15:31:37.149Z,86.35
2019-05-21T15:34:03.895Z,86.32
2019-05-21T15:36:30.516Z,86.43
2019-05-21T15:38:57.406Z,86.57
2019-05-21T15:41:24.413Z,86.50
2019-05-21T15:43:53.467Z,86.32
2019-05-21T15:46:20.257Z,87.12
2019-05-21T15:48:48.142Z,87.14
2019-05-21T15:51:14.794Z,87.48
2019-05-21T15:53:41.917Z,87.31
2019-05-21T15:56:08.564Z,87.00
2019-05-21T15:58:35.232Z,86.56
2019-05-21T16:01:01.983Z,86.97
2019-05-21T16:03:28.833Z,86.75
2019-05-21T16:05:55.576Z,86.45
2019-05-21T16:08:22.553Z,86.04
2019-05-21T16:10:52.471Z,85.81
2019-05-21T16:13:19.106Z,85.71
2019-05-21T16:15:49.287Z,86.22
2019-05-21T16:18:16.089Z,86.15
2019-05-21T16:20:43.038Z,85.59
2019-05-21T16:23:09.617Z,85.49
2019-05-21T16:25:37.496Z,84.96
2019-05-21T16:28:04.505Z,85.46
2019-05-21T16:30:33.183Z,85.40
2019-05-21T16:33:00.015Z,84.97
2019-05-21T16:35:26.819Z,85.54
2019-05-21T16:37:56.289Z,85.00
2019-05-21T16:40:28.737Z,85.68
2019-05-21T16:42:55.864Z,85.21
2019-05-21T16:45:22.513Z,85.32
2019-05-21T16:47:49.392Z,85.50
2019-05-21T16:50:16.634Z,85.43
2019-05-21T16:52:43.480Z,85.64
2019-05-21T16:55:10.604Z,86.36
2019-05-21T16:57:38.168Z,86.04
2019-05-21T17:00:05.888Z,85.88
2019-05-21T17:02:32.558Z,86.77
2019-05-21T17:04:59.218Z,86.81
2019-05-21T17:07:26.191Z,86.26
2019-05-21T17:09:52.888Z,86.28
2019-05-21T17:12:19.498Z,86.03
2019-05-21T17:14:46.231Z,86.66
2019-05-21T17:17:12.856Z,87.17
2019-05-21T17:19:40.826Z,87.21
2019-05-21T17:22:07.457Z,87.51
2019-05-21T17:24:34.819Z,87.16
2019-05-21T17:27:01.445Z,87.07
2019-05-21T17:29:28.452Z,87.70
2019-05-21T17:31:55.362Z,88.08
2019-05-21T17:34:22.390Z,88.05
2019-05-21T17:36:49.119Z,88.27
2019-05-21T17:39:15.914Z,87.34
2019-05-21T17:41:42.696Z,88.85
2019-05-21T17:44:09.460Z,88.89
2019-05-21T17:46:36.083Z,88.45
2019-05-21T17:49:02.801Z,88.02
2019-05-21T17:51:29.480Z,88.39
2019-05-21T17:53:56.462Z,88.75
2019-05-21T17:56:23.080Z,88.64
2019-05-21T17:58:49.866Z,88.68
2019-05-21T18:01:17.122Z,88.43
2019-05-21T18:03:44.314Z,88.57
2019-05-21T18:06:11.946Z,89.02
2019-05-21T18:08:39.561Z,89.00
2019-05-21T18:11:06.755Z,88.94
2019-05-21T18:13:33.811Z,89.09
2019-05-21T18:16:00.779Z,89.64
2019-05-21T18:18:28.193Z,89.12
2019-05-21T18:20:55.386Z,88.93
2019-05-21T18:23:22.126Z,89.15
2019-05-21T18:25:49.059Z,88.37
2019-05-21T18:28:15.928Z,88.64
2019-05-21T18:30:44.083Z,88.68
2019-05-21T18:33:11.446Z,88.94
2019-05-21T18:35:38.236Z,89.28
2019-05-21T18:38:05.131Z,89.20
2019-05-21T18:40:31.838Z,89.82
2019-05-21T18:42:58.452Z,89.98
2019-05-21T18:45:25.131Z,89.90
2019-05-21T18:47:51.727Z,89.84
2019-05-21T18:50:18.877Z,90.19
2019-05-21T18:52:49.514Z,90.04
2019-05-21T18:55:14.786Z,89.85
2019-05-21T18:57:41.603Z,89.65
2019-05-21T19:00:08.893Z,90.11
2019-05-21T19:02:35.921Z,90.28
2019-05-21T19:05:03.962Z,90.76
2019-05-21T19:07:31.638Z,90.32
2019-05-21T19:10:00.989Z,90.39
2019-05-21T19:12:37.239Z,90.67
2019-05-21T19:14:56.290Z,91.05
2019-05-21T19:17:34.743Z,90.87
2019-05-21T19:19:51.560Z,90.94
2019-05-21T19:22:18.292Z,90.59
2019-05-21T19:24:45.347Z,90.99
2019-05-21T19:27:12.185Z,90.50
2019-05-21T19:29:38.928Z,90.75
2019-05-21T19:32:05.572Z,91.11
2019-05-21T19:34:32.976Z,90.72
2019-05-21T19:36:59.693Z,90.81
2019-05-21T19:39:27.313Z,90.77
2019-05-21T19:41:54.323Z,90.94
2019-05-21T19:44:21.749Z,90.94
2019-05-21T19:46:48.459Z,90.87
2019-05-21T19:49:15.390Z,91.02
2019-05-21T19:51:42.751Z,90.99
2019-05-21T19:54:09.509Z,91.56
2019-05-21T19:56:36.786Z,90.83
2019-05-21T19:59:03.797Z,91.19
2019-05-21T20:01:30.846Z,90.95
2019-05-21T20:03:57.636Z,90.59
2019-05-21T20:06:24.531Z,90.90
2019-05-21T20:08:51.356Z,91.21
2019-05-21T20:11:18.006Z,91.01
2019-05-21T20:13:44.906Z,90.75
2019-05-21T20:16:12.405Z,90.42
2019-05-21T20:18:39.193Z,90.31
2019-05-21T20:21:08.140Z,90.40
2019-05-21T20:23:35.231Z,90.43
2019-05-21T20:26:02.311Z,90.42
2019-05-21T20:28:29.536Z,90.74
2019-05-21T20:30:56.841Z,91.16
2019-05-21T20:33:24.043Z,91.21
2019-05-21T20:35:52.884Z,91.21
2019-05-21T20:38:20.487Z,90.62
2019-05-21T20:40:47.235Z,90.19
2019-05-21T20:43:14.184Z,90.43
2019-05-21T20:45:42.702Z,90.61
2019-05-21T20:48:11.425Z,90.59
2019-05-21T20:50:38.621Z,90.74
2019-05-21T20:53:05.708Z,90.60
2019-05-21T20:55:32.373Z,90.52
2019-05-21T20:57:59.037Z,90.79
2019-05-21T21:00:39.825Z,90.42
2019-05-21T21:03:07.646Z,90.53
2019-05-21T21:05:35.911Z,90.70
2019-05-21T21:08:03.199Z,90.58
2019-05-21T21:10:30.134Z,90.69
2019-05-21T21:12:57.864Z,90.49
2019-05-21T21:15:25.620Z,90.61
2019-05-21T21:17:52.892Z,90.64
2019-05-21T21:20:20.978Z,90.70
2019-05-21T21:22:47.563Z,90.74
2019-05-21T21:25:19.002Z,90.40
2019-05-21T21:27:45.793Z,90.62
2019-05-21T21:30:12.753Z,90.66
2019-05-21T21:32:39.598Z,90.51
2019-05-21T21:35:08.319Z,90.65
2019-05-21T21:37:38.188Z,90.95
2019-05-21T21:40:06.244Z,90.49
2019-05-21T21:42:34.883Z,90.86
2019-05-21T21:45:02.976Z,90.64
2019-05-21T21:47:29.786Z,90.92
2019-05-21T21:49:56.852Z,90.75
2019-05-21T21:52:24.136Z,90.68
2019-05-21T21:54:50.716Z,90.93
2019-05-21T21:57:17.625Z,90.69
2019-05-21T21:59:44.508Z,90.40
2019-05-21T22:02:19.444Z,90.36
2019-05-21T22:04:46.505Z,90.73
2019-05-21T22:07:13.287Z,90.55
2019-05-21T22:09:40.529Z,90.73
2019-05-21T22:12:11.659Z,90.96
2019-05-21T22:14:50.304Z,91.55
2019-05-21T22:17:09.209Z,91.31
2019-05-21T22:19:36.844Z,91.16
2019-05-21T22:22:04.825Z,90.54
2019-05-21T22:24:31.745Z,90.44
2019-05-21T22:26:58.566Z,90.45
2019-05-21T22:29:25.925Z,90.86
2019-05-21T22:31:52.698Z,90.62
2019-05-21T22:34:20.202Z,90.98
2019-05-21T22:36:46.987Z,90.70
2019-05-21T22:39:21.326Z,90.95
2019-05-21T22:41:48.192Z,90.94
2019-05-21T22:44:14.892Z,90.80
2019-05-21T22:46:41.948Z,90.82
2019-05-21T22:49:09.312Z,91.00
2019-05-21T22:51:37.077Z,90.77
2019-05-21T22:54:03.789Z,91.03
2019-05-21T22:56:30.454Z,90.83
2019-05-21T22:58:57.151Z,90.71
2019-05-21T23:01:25.325Z,90.94
2019-05-21T23:03:52.287Z,90.55
2019-05-21T23:06:19.967Z,90.55
2019-05-21T23:08:46.707Z,90.77
2019-05-21T23:11:13.389Z,91.00
2019-05-21T23:13:40.015Z,90.87
2019-05-21T23:16:07.294Z,90.84
2019-05-21T23:18:54.741Z,90.72
2019-05-21T23:21:34.360Z,90.87
2019-05-21T23:24:03.525Z,91.36
2019-05-21T23:26:30.305Z,91.23
2019-05-21T23:28:57.286Z,91.40
2019-05-21T23:31:25.152Z,91.59
2019-05-21T23:33:53.188Z,91.45
2019-05-21T23:36:20.309Z,91.08
2019-05-21T23:38:48.437Z,91.07
2019-05-21T23:41:17.739Z,91.24
2019-05-21T23:43:44.355Z,91.44
2019-05-21T23:46:12.936Z,90.97
2019-05-21T23:48:40.310Z,91.16
2019-05-21T23:51:07.587Z,90.85
2019-05-21T23:53:34.444Z,91.35
2019-05-21T23:56:01.615Z,90.96
2019-05-21T23:58:28.347Z,91.08
